sensor_id;sensor_type;location;lat;lon;timestamp;temperature;humidity
37702;DHT22;23548;51.196;6.838;2023-09-19T00:01:40;15.90;99.90
37702;DHT22;23548;51.196;6.838;2023-09-19T00:04:07;15.90;99.90
37702;DHT22;23548;51.196;6.838;2023-09-19T00:06:36;15.80;99.90
37702;DHT22;23548;51.196;6.838;2023-09-19T00:09:03;15.80;99.90
37702;DHT22;23548;51.196;6.838;2023-09-19T00:11:29;15.80;99.90
37702;DHT22;23548;51.196;6.838;2023-09-19T00:13:56;15.80;99.90
37702;DHT22;23548;51.196;6.838;2023-09-19T00:16:24;15.80;99.90
37702;DHT22;23548;51.196;6.838;2023-09-19T00:18:51;15.80;99.90
37702;DHT22;23548;51.196;6.838;2023-09-19T00:21:18;15.80;99.90
37702;DHT22;23548;51.196;6.838;2023-09-19T00:23:45;15.80;99.90
37702;DHT22;23548;51.196;6.838;2023-09-19T00:26:10;15.70;99.90
37702;DHT22;23548;51.196;6.838;2023-09-19T00:28:36;15.70;99.90
37702;DHT22;23548;51.196;6.838;2023-09-19T00:31:02;15.70;99.90
37702;DHT22;23548;51.196;6.838;2023-09-19T00:33:28;15.80;99.90
37702;DHT22;23548;51.196;6.838;2023-09-19T00:35:57;15.70;99.90
37702;DHT22;23548;51.196;6.838;2023-09-19T00:38:23;15.70;99.90
37702;DHT22;23548;51.196;6.838;2023-09-19T00:40:53;15.70;99.90
37702;DHT22;23548;51.196;6.838;2023-09-19T00:43:19;15.70;99.90
37702;DHT22;23548;51.196;6.838;2023-09-19T00:45:47;15.70;99.90
37702;DHT22;23548;51.196;6.838;2023-09-19T00:48:14;15.70;99.90
37702;DHT22;23548;51.196;6.838;2023-09-19T00:50:42;15.70;99.90
37702;DHT22;23548;51.196;6.838;2023-09-19T00:53:10;15.70;99.90
37702;DHT22;23548;51.196;6.838;2023-09-19T00:55:39;15.70;99.90
37702;DHT22;23548;51.196;6.838;2023-09-19T00:58:06;15.80;99.90
37702;DHT22;23548;51.196;6.838;2023-09-19T01:00:33;15.80;99.90
37702;DHT22;23548;51.196;6.838;2023-09-19T01:03:02;15.80;99.90
37702;DHT22;23548;51.196;6.838;2023-09-19T01:05:29;15.80;99.90
37702;DHT22;23548;51.196;6.838;2023-09-19T01:07:57;15.80;99.90
37702;DHT22;23548;51.196;6.838;2023-09-19T01:10:24;15.80;99.90
37702;DHT22;23548;51.196;6.838;2023-09-19T01:13:19;15.80;99.90
37702;DHT22;23548;51.196;6.838;2023-09-19T01:19:14;15.70;99.90
37702;DHT22;23548;51.196;6.838;2023-09-19T01:21:57;15.70;99.90
37702;DHT22;23548;51.196;6.838;2023-09-19T01:30:16;15.60;99.90
37702;DHT22;23548;51.196;6.838;2023-09-19T01:32:42;15.60;99.90
37702;DHT22;23548;51.196;6.838;2023-09-19T01:35:09;15.60;99.90
37702;DHT22;23548;51.196;6.838;2023-09-19T01:37:38;15.60;99.90
37702;DHT22;23548;51.196;6.838;2023-09-19T01:43:41;15.70;99.90
37702;DHT22;23548;51.196;6.838;2023-09-19T01:46:19;15.70;99.90
37702;DHT22;23548;51.196;6.838;2023-09-19T01:51:53;15.70;99.90
37702;DHT22;23548;51.196;6.838;2023-09-19T01:54:27;15.70;99.90
37702;DHT22;23548;51.196;6.838;2023-09-19T01:57:04;15.70;99.90
37702;DHT22;23548;51.196;6.838;2023-09-19T01:59:52;15.70;99.90
37702;DHT22;23548;51.196;6.838;2023-09-19T02:02:21;15.70;99.90
37702;DHT22;23548;51.196;6.838;2023-09-19T02:04:48;15.70;99.90
37702;DHT22;23548;51.196;6.838;2023-09-19T02:07:16;15.70;99.90
37702;DHT22;23548;51.196;6.838;2023-09-19T02:09:42;15.70;99.90
37702;DHT22;23548;51.196;6.838;2023-09-19T02:12:09;15.60;99.90
37702;DHT22;23548;51.196;6.838;2023-09-19T02:14:35;15.60;99.90
37702;DHT22;23548;51.196;6.838;2023-09-19T02:17:04;15.60;99.90
37702;DHT22;23548;51.196;6.838;2023-09-19T02:19:35;15.60;99.90
37702;DHT22;23548;51.196;6.838;2023-09-19T02:22:01;15.70;99.90
37702;DHT22;23548;51.196;6.838;2023-09-19T02:24:33;15.70;99.90
37702;DHT22;23548;51.196;6.838;2023-09-19T02:26:59;15.60;99.90
37702;DHT22;23548;51.196;6.838;2023-09-19T02:29:29;15.60;99.90
37702;DHT22;23548;51.196;6.838;2023-09-19T02:31:55;15.60;99.90
37702;DHT22;23548;51.196;6.838;2023-09-19T02:34:22;15.60;99.90
37702;DHT22;23548;51.196;6.838;2023-09-19T02:36:47;15.50;99.90
37702;DHT22;23548;51.196;6.838;2023-09-19T02:39:13;15.50;99.90
37702;DHT22;23548;51.196;6.838;2023-09-19T02:41:39;15.50;99.90
37702;DHT22;23548;51.196;6.838;2023-09-19T02:44:07;15.50;99.90
37702;DHT22;23548;51.196;6.838;2023-09-19T02:46:34;15.50;99.90
37702;DHT22;23548;51.196;6.838;2023-09-19T02:49:02;15.40;99.90
37702;DHT22;23548;51.196;6.838;2023-09-19T02:51:30;15.40;99.90
37702;DHT22;23548;51.196;6.838;2023-09-19T02:53:56;15.30;99.90
37702;DHT22;23548;51.196;6.838;2023-09-19T02:56:22;15.30;99.90
37702;DHT22;23548;51.196;6.838;2023-09-19T02:58:48;15.30;99.90
37702;DHT22;23548;51.196;6.838;2023-09-19T03:01:14;15.30;99.90
37702;DHT22;23548;51.196;6.838;2023-09-19T03:03:40;15.30;99.90
37702;DHT22;23548;51.196;6.838;2023-09-19T03:06:06;15.20;99.90
37702;DHT22;23548;51.196;6.838;2023-09-19T03:08:35;15.20;99.90
37702;DHT22;23548;51.196;6.838;2023-09-19T03:11:03;15.20;99.90
37702;DHT22;23548;51.196;6.838;2023-09-19T03:13:31;15.20;99.90
37702;DHT22;23548;51.196;6.838;2023-09-19T03:15:57;15.20;99.90
37702;DHT22;23548;51.196;6.838;2023-09-19T03:18:26;15.20;99.90
37702;DHT22;23548;51.196;6.838;2023-09-19T03:20:56;15.10;99.90
37702;DHT22;23548;51.196;6.838;2023-09-19T03:23:22;15.20;99.90
37702;DHT22;23548;51.196;6.838;2023-09-19T03:25:48;15.10;99.90
37702;DHT22;23548;51.196;6.838;2023-09-19T03:30:59;15.10;99.90
37702;DHT22;23548;51.196;6.838;2023-09-19T03:33:25;15.10;99.90
37702;DHT22;23548;51.196;6.838;2023-09-19T03:35:54;15.00;99.90
37702;DHT22;23548;51.196;6.838;2023-09-19T03:38:20;14.90;99.90
37702;DHT22;23548;51.196;6.838;2023-09-19T03:40:47;15.00;99.90
37702;DHT22;23548;51.196;6.838;2023-09-19T03:43:14;15.00;99.90
37702;DHT22;23548;51.196;6.838;2023-09-19T03:45:40;14.90;99.90
37702;DHT22;23548;51.196;6.838;2023-09-19T03:48:09;14.90;99.90
37702;DHT22;23548;51.196;6.838;2023-09-19T03:50:35;14.90;99.90
37702;DHT22;23548;51.196;6.838;2023-09-19T03:53:01;14.90;99.90
37702;DHT22;23548;51.196;6.838;2023-09-19T03:55:27;14.90;99.90
37702;DHT22;23548;51.196;6.838;2023-09-19T03:57:53;14.90;99.90
37702;DHT22;23548;51.196;6.838;2023-09-19T04:00:19;14.90;99.90
37702;DHT22;23548;51.196;6.838;2023-09-19T04:02:51;14.90;99.90
37702;DHT22;23548;51.196;6.838;2023-09-19T04:05:17;14.90;99.90
37702;DHT22;23548;51.196;6.838;2023-09-19T04:07:43;14.90;99.90
37702;DHT22;23548;51.196;6.838;2023-09-19T04:10:09;15.00;99.90
37702;DHT22;23548;51.196;6.838;2023-09-19T04:12:37;14.90;99.90
37702;DHT22;23548;51.196;6.838;2023-09-19T04:15:03;14.90;99.90
37702;DHT22;23548;51.196;6.838;2023-09-19T04:17:28;14.90;99.90
37702;DHT22;23548;51.196;6.838;2023-09-19T04:19:54;14.90;99.90
37702;DHT22;23548;51.196;6.838;2023-09-19T04:22:20;14.90;99.90
37702;DHT22;23548;51.196;6.838;2023-09-19T04:24:46;14.90;99.90
37702;DHT22;23548;51.196;6.838;2023-09-19T04:27:11;14.90;99.90
37702;DHT22;23548;51.196;6.838;2023-09-19T04:29:40;14.90;99.90
37702;DHT22;23548;51.196;6.838;2023-09-19T04:32:07;14.90;99.90
37702;DHT22;23548;51.196;6.838;2023-09-19T04:34:33;14.90;99.90
37702;DHT22;23548;51.196;6.838;2023-09-19T04:37:00;14.90;99.90
37702;DHT22;23548;51.196;6.838;2023-09-19T04:39:26;14.90;99.90
37702;DHT22;23548;51.196;6.838;2023-09-19T04:41:52;14.90;99.90
37702;DHT22;23548;51.196;6.838;2023-09-19T04:44:18;14.90;99.90
37702;DHT22;23548;51.196;6.838;2023-09-19T04:46:44;14.90;99.90
37702;DHT22;23548;51.196;6.838;2023-09-19T04:49:12;14.90;99.90
37702;DHT22;23548;51.196;6.838;2023-09-19T04:51:38;14.90;99.90
37702;DHT22;23548;51.196;6.838;2023-09-19T04:54:04;14.90;99.90
37702;DHT22;23548;51.196;6.838;2023-09-19T04:56:29;14.90;99.90
37702;DHT22;23548;51.196;6.838;2023-09-19T04:59:00;14.80;99.90
37702;DHT22;23548;51.196;6.838;2023-09-19T05:01:26;14.80;99.90
37702;DHT22;23548;51.196;6.838;2023-09-19T05:03:52;14.80;99.90
37702;DHT22;23548;51.196;6.838;2023-09-19T05:06:21;14.90;99.90
37702;DHT22;23548;51.196;6.838;2023-09-19T05:08:47;14.90;99.90
37702;DHT22;23548;51.196;6.838;2023-09-19T05:11:18;14.90;99.90
37702;DHT22;23548;51.196;6.838;2023-09-19T05:13:44;14.90;99.90
37702;DHT22;23548;51.196;6.838;2023-09-19T05:16:10;14.90;99.90
37702;DHT22;23548;51.196;6.838;2023-09-19T05:18:36;14.90;99.90
37702;DHT22;23548;51.196;6.838;2023-09-19T05:21:05;15.00;99.90
37702;DHT22;23548;51.196;6.838;2023-09-19T05:23:30;15.00;99.90
37702;DHT22;23548;51.196;6.838;2023-09-19T05:25:57;15.00;99.90
37702;DHT22;23548;51.196;6.838;2023-09-19T05:28:25;15.00;99.90
37702;DHT22;23548;51.196;6.838;2023-09-19T05:30:52;15.10;99.90
37702;DHT22;23548;51.196;6.838;2023-09-19T05:33:19;15.10;99.90
37702;DHT22;23548;51.196;6.838;2023-09-19T05:35:45;15.20;99.90
37702;DHT22;23548;51.196;6.838;2023-09-19T05:38:12;15.30;99.90
37702;DHT22;23548;51.196;6.838;2023-09-19T05:40:39;15.30;99.90
37702;DHT22;23548;51.196;6.838;2023-09-19T05:43:08;15.40;99.90
37702;DHT22;23548;51.196;6.838;2023-09-19T05:45:34;15.40;99.90
37702;DHT22;23548;51.196;6.838;2023-09-19T05:48:12;15.50;99.90
37702;DHT22;23548;51.196;6.838;2023-09-19T05:50:41;15.50;99.90
37702;DHT22;23548;51.196;6.838;2023-09-19T05:53:07;15.50;99.90
37702;DHT22;23548;51.196;6.838;2023-09-19T05:55:33;15.60;99.90
37702;DHT22;23548;51.196;6.838;2023-09-19T05:57:59;15.60;99.90
37702;DHT22;23548;51.196;6.838;2023-09-19T06:00:25;15.60;99.90
37702;DHT22;23548;51.196;6.838;2023-09-19T06:02:53;15.70;99.90
37702;DHT22;23548;51.196;6.838;2023-09-19T06:05:19;15.70;99.90
37702;DHT22;23548;51.196;6.838;2023-09-19T06:07:45;15.70;99.90
37702;DHT22;23548;51.196;6.838;2023-09-19T06:10:12;15.70;99.90
37702;DHT22;23548;51.196;6.838;2023-09-19T06:12:42;15.80;99.90
37702;DHT22;23548;51.196;6.838;2023-09-19T06:15:12;15.80;99.90
37702;DHT22;23548;51.196;6.838;2023-09-19T06:17:55;15.70;99.90
37702;DHT22;23548;51.196;6.838;2023-09-19T06:20:21;15.80;99.90
37702;DHT22;23548;51.196;6.838;2023-09-19T06:22:49;15.80;99.90
37702;DHT22;23548;51.196;6.838;2023-09-19T06:25:16;15.80;99.90
37702;DHT22;23548;51.196;6.838;2023-09-19T06:27:54;15.90;99.90
37702;DHT22;23548;51.196;6.838;2023-09-19T06:30:22;15.90;99.90
37702;DHT22;23548;51.196;6.838;2023-09-19T06:32:58;15.90;99.90
37702;DHT22;23548;51.196;6.838;2023-09-19T06:35:24;15.90;99.90
37702;DHT22;23548;51.196;6.838;2023-09-19T06:37:51;15.90;99.90
37702;DHT22;23548;51.196;6.838;2023-09-19T06:40:18;15.90;99.90
37702;DHT22;23548;51.196;6.838;2023-09-19T06:42:46;15.90;99.90
37702;DHT22;23548;51.196;6.838;2023-09-19T06:45:14;15.90;99.90
37702;DHT22;23548;51.196;6.838;2023-09-19T06:47:44;15.90;99.90
37702;DHT22;23548;51.196;6.838;2023-09-19T06:50:10;16.00;99.90
37702;DHT22;23548;51.196;6.838;2023-09-19T06:52:42;16.10;99.90
37702;DHT22;23548;51.196;6.838;2023-09-19T06:55:08;16.10;99.90
37702;DHT22;23548;51.196;6.838;2023-09-19T06:57:39;16.00;99.90
37702;DHT22;23548;51.196;6.838;2023-09-19T07:00:09;15.90;99.90
37702;DHT22;23548;51.196;6.838;2023-09-19T07:02:44;16.00;99.90
37702;DHT22;23548;51.196;6.838;2023-09-19T07:05:10;16.00;99.90
37702;DHT22;23548;51.196;6.838;2023-09-19T07:07:35;16.20;99.90
37702;DHT22;23548;51.196;6.838;2023-09-19T07:10:05;16.10;99.90
37702;DHT22;23548;51.196;6.838;2023-09-19T07:12:31;16.10;99.90
37702;DHT22;23548;51.196;6.838;2023-09-19T07:14:58;16.30;99.90
37702;DHT22;23548;51.196;6.838;2023-09-19T07:17:24;16.30;99.90
37702;DHT22;23548;51.196;6.838;2023-09-19T07:19:50;16.30;99.90
37702;DHT22;23548;51.196;6.838;2023-09-19T07:22:16;16.50;99.90
37702;DHT22;23548;51.196;6.838;2023-09-19T07:24:41;16.40;99.90
37702;DHT22;23548;51.196;6.838;2023-09-19T07:27:08;16.40;99.90
37702;DHT22;23548;51.196;6.838;2023-09-19T07:29:34;16.40;99.90
37702;DHT22;23548;51.196;6.838;2023-09-19T07:32:00;16.60;99.90
37702;DHT22;23548;51.196;6.838;2023-09-19T07:34:25;16.80;99.90
37702;DHT22;23548;51.196;6.838;2023-09-19T07:36:51;16.80;99.90
37702;DHT22;23548;51.196;6.838;2023-09-19T07:39:17;16.80;99.90
37702;DHT22;23548;51.196;6.838;2023-09-19T07:41:43;17.00;99.90
37702;DHT22;23548;51.196;6.838;2023-09-19T07:44:09;17.00;99.90
37702;DHT22;23548;51.196;6.838;2023-09-19T07:46:37;17.00;99.90
37702;DHT22;23548;51.196;6.838;2023-09-19T07:49:06;17.10;99.90
37702;DHT22;23548;51.196;6.838;2023-09-19T07:51:31;17.10;99.90
37702;DHT22;23548;51.196;6.838;2023-09-19T07:53:58;17.20;99.90
37702;DHT22;23548;51.196;6.838;2023-09-19T07:56:24;17.20;99.90
37702;DHT22;23548;51.196;6.838;2023-09-19T07:58:51;17.30;99.90
37702;DHT22;23548;51.196;6.838;2023-09-19T08:01:17;17.30;99.90
37702;DHT22;23548;51.196;6.838;2023-09-19T08:03:43;17.30;99.90
37702;DHT22;23548;51.196;6.838;2023-09-19T08:06:09;17.20;99.90
37702;DHT22;23548;51.196;6.838;2023-09-19T08:08:36;17.40;99.90
37702;DHT22;23548;51.196;6.838;2023-09-19T08:11:05;17.60;99.90
37702;DHT22;23548;51.196;6.838;2023-09-19T08:13:39;17.60;99.90
37702;DHT22;23548;51.196;6.838;2023-09-19T08:16:11;17.60;99.90
37702;DHT22;23548;51.196;6.838;2023-09-19T08:18:37;17.40;99.90
37702;DHT22;23548;51.196;6.838;2023-09-19T08:21:06;17.40;99.90
37702;DHT22;23548;51.196;6.838;2023-09-19T08:23:40;17.40;99.90
37702;DHT22;23548;51.196;6.838;2023-09-19T08:26:06;17.60;99.90
37702;DHT22;23548;51.196;6.838;2023-09-19T08:28:36;17.70;99.90
37702;DHT22;23548;51.196;6.838;2023-09-19T08:31:06;17.80;99.90
37702;DHT22;23548;51.196;6.838;2023-09-19T08:33:36;17.70;99.90
37702;DHT22;23548;51.196;6.838;2023-09-19T08:36:03;17.70;99.90
37702;DHT22;23548;51.196;6.838;2023-09-19T08:38:31;17.80;99.90
37702;DHT22;23548;51.196;6.838;2023-09-19T08:41:00;17.90;99.90
37702;DHT22;23548;51.196;6.838;2023-09-19T08:43:26;17.80;99.90
37702;DHT22;23548;51.196;6.838;2023-09-19T08:46:09;17.90;99.90
37702;DHT22;23548;51.196;6.838;2023-09-19T08:48:39;18.10;99.90
37702;DHT22;23548;51.196;6.838;2023-09-19T08:51:16;18.00;99.90
37702;DHT22;23548;51.196;6.838;2023-09-19T08:54:03;18.00;99.90
37702;DHT22;23548;51.196;6.838;2023-09-19T08:56:35;18.20;99.90
37702;DHT22;23548;51.196;6.838;2023-09-19T08:59:06;18.10;99.90
37702;DHT22;23548;51.196;6.838;2023-09-19T09:01:38;18.20;99.90
37702;DHT22;23548;51.196;6.838;2023-09-19T09:04:08;18.40;99.90
37702;DHT22;23548;51.196;6.838;2023-09-19T09:06:38;18.10;99.90
37702;DHT22;23548;51.196;6.838;2023-09-19T09:09:08;18.20;99.90
37702;DHT22;23548;51.196;6.838;2023-09-19T09:11:34;18.50;99.90
37702;DHT22;23548;51.196;6.838;2023-09-19T09:14:02;18.30;99.90
37702;DHT22;23548;51.196;6.838;2023-09-19T09:16:30;18.50;99.90
37702;DHT22;23548;51.196;6.838;2023-09-19T09:18:56;18.50;99.90
37702;DHT22;23548;51.196;6.838;2023-09-19T09:21:25;18.40;99.90
37702;DHT22;23548;51.196;6.838;2023-09-19T09:23:51;18.60;99.90
37702;DHT22;23548;51.196;6.838;2023-09-19T09:26:41;18.80;99.90
37702;DHT22;23548;51.196;6.838;2023-09-19T09:29:08;19.10;99.90
37702;DHT22;23548;51.196;6.838;2023-09-19T09:31:33;19.20;99.90
37702;DHT22;23548;51.196;6.838;2023-09-19T09:34:00;19.20;99.90
37702;DHT22;23548;51.196;6.838;2023-09-19T09:36:38;19.60;99.90
37702;DHT22;23548;51.196;6.838;2023-09-19T09:39:04;19.80;99.90
37702;DHT22;23548;51.196;6.838;2023-09-19T09:41:50;19.60;99.90
37702;DHT22;23548;51.196;6.838;2023-09-19T09:44:17;19.70;99.90
37702;DHT22;23548;51.196;6.838;2023-09-19T09:46:45;19.40;99.90
37702;DHT22;23548;51.196;6.838;2023-09-19T09:49:24;19.50;99.90
37702;DHT22;23548;51.196;6.838;2023-09-19T09:52:06;19.20;99.90
37702;DHT22;23548;51.196;6.838;2023-09-19T09:54:34;19.70;99.90
37702;DHT22;23548;51.196;6.838;2023-09-19T09:57:07;19.50;99.90
37702;DHT22;23548;51.196;6.838;2023-09-19T10:02:30;19.30;99.90
37702;DHT22;23548;51.196;6.838;2023-09-19T10:07:40;19.60;99.90
37702;DHT22;23548;51.196;6.838;2023-09-19T10:10:15;19.60;99.90
37702;DHT22;23548;51.196;6.838;2023-09-19T10:12:47;19.50;99.90
37702;DHT22;23548;51.196;6.838;2023-09-19T10:15:16;19.30;99.90
37702;DHT22;23548;51.196;6.838;2023-09-19T10:17:44;19.20;99.90
37702;DHT22;23548;51.196;6.838;2023-09-19T10:20:16;19.30;99.90
37702;DHT22;23548;51.196;6.838;2023-09-19T10:23:05;19.40;99.90
37702;DHT22;23548;51.196;6.838;2023-09-19T10:25:37;19.60;99.90
37702;DHT22;23548;51.196;6.838;2023-09-19T10:28:03;19.30;99.90
37702;DHT22;23548;51.196;6.838;2023-09-19T10:30:37;19.30;99.90
37702;DHT22;23548;51.196;6.838;2023-09-19T10:33:05;19.40;99.90
37702;DHT22;23548;51.196;6.838;2023-09-19T10:35:34;19.50;99.90
37702;DHT22;23548;51.196;6.838;2023-09-19T10:38:04;19.50;99.90
37702;DHT22;23548;51.196;6.838;2023-09-19T10:40:32;19.90;99.90
37702;DHT22;23548;51.196;6.838;2023-09-19T10:43:03;20.10;99.90
37702;DHT22;23548;51.196;6.838;2023-09-19T10:45:34;20.20;99.90
37702;DHT22;23548;51.196;6.838;2023-09-19T10:48:01;20.50;99.90
37702;DHT22;23548;51.196;6.838;2023-09-19T10:51:15;20.20;99.90
37702;DHT22;23548;51.196;6.838;2023-09-19T10:53:21;19.80;99.90
37702;DHT22;23548;51.196;6.838;2023-09-19T10:55:51;19.60;99.90
37702;DHT22;23548;51.196;6.838;2023-09-19T10:58:31;19.50;99.90
37702;DHT22;23548;51.196;6.838;2023-09-19T11:01:02;19.50;99.90
37702;DHT22;23548;51.196;6.838;2023-09-19T11:03:31;19.70;99.90
37702;DHT22;23548;51.196;6.838;2023-09-19T11:09:00;20.30;99.90
37702;DHT22;23548;51.196;6.838;2023-09-19T11:11:52;20.20;99.90
37702;DHT22;23548;51.196;6.838;2023-09-19T11:30:44;20.30;99.90
37702;DHT22;23548;51.196;6.838;2023-09-19T11:33:37;20.30;99.90
37702;DHT22;23548;51.196;6.838;2023-09-19T11:36:14;20.30;99.90
37702;DHT22;23548;51.196;6.838;2023-09-19T11:43:51;20.60;99.90
37702;DHT22;23548;51.196;6.838;2023-09-19T11:46:17;20.50;99.90
37702;DHT22;23548;51.196;6.838;2023-09-19T11:48:51;20.40;99.90
37702;DHT22;23548;51.196;6.838;2023-09-19T11:51:23;20.30;99.90
37702;DHT22;23548;51.196;6.838;2023-09-19T11:54:01;20.40;99.90
37702;DHT22;23548;51.196;6.838;2023-09-19T11:56:29;20.00;99.90
37702;DHT22;23548;51.196;6.838;2023-09-19T11:58:57;20.00;99.90
37702;DHT22;23548;51.196;6.838;2023-09-19T12:01:30;20.20;99.90
37702;DHT22;23548;51.196;6.838;2023-09-19T12:03:58;20.20;99.90
37702;DHT22;23548;51.196;6.838;2023-09-19T12:06:29;20.30;99.90
37702;DHT22;23548;51.196;6.838;2023-09-19T12:08:55;20.10;99.90
37702;DHT22;23548;51.196;6.838;2023-09-19T12:11:22;20.20;99.90
37702;DHT22;23548;51.196;6.838;2023-09-19T12:13:49;20.20;99.90
37702;DHT22;23548;51.196;6.838;2023-09-19T12:16:19;20.20;99.90
37702;DHT22;23548;51.196;6.838;2023-09-19T12:18:50;20.30;99.90
37702;DHT22;23548;51.196;6.838;2023-09-19T12:21:24;20.40;99.90
37702;DHT22;23548;51.196;6.838;2023-09-19T12:24:20;20.50;99.90
37702;DHT22;23548;51.196;6.838;2023-09-19T12:26:46;20.40;99.90
37702;DHT22;23548;51.196;6.838;2023-09-19T12:29:21;20.30;99.90
37702;DHT22;23548;51.196;6.838;2023-09-19T12:31:51;20.40;99.90
37702;DHT22;23548;51.196;6.838;2023-09-19T12:34:22;20.50;99.90
37702;DHT22;23548;51.196;6.838;2023-09-19T12:36:49;20.50;99.90
37702;DHT22;23548;51.196;6.838;2023-09-19T12:39:26;20.60;99.90
37702;DHT22;23548;51.196;6.838;2023-09-19T12:41:52;20.70;99.90
37702;DHT22;23548;51.196;6.838;2023-09-19T12:44:19;21.00;99.90
37702;DHT22;23548;51.196;6.838;2023-09-19T12:46:45;20.80;99.90
37702;DHT22;23548;51.196;6.838;2023-09-19T12:49:20;20.80;99.90
37702;DHT22;23548;51.196;6.838;2023-09-19T12:51:47;20.80;99.90
37702;DHT22;23548;51.196;6.838;2023-09-19T12:54:13;20.80;99.90
37702;DHT22;23548;51.196;6.838;2023-09-19T12:56:43;20.90;99.90
37702;DHT22;23548;51.196;6.838;2023-09-19T12:59:12;20.90;99.90
37702;DHT22;23548;51.196;6.838;2023-09-19T13:01:40;21.10;99.90
37702;DHT22;23548;51.196;6.838;2023-09-19T13:04:21;21.30;99.90
37702;DHT22;23548;51.196;6.838;2023-09-19T13:07:00;21.10;99.90
37702;DHT22;23548;51.196;6.838;2023-09-19T13:09:27;21.10;99.90
37702;DHT22;23548;51.196;6.838;2023-09-19T13:12:05;21.40;99.90
37702;DHT22;23548;51.196;6.838;2023-09-19T13:14:32;21.50;99.90
37702;DHT22;23548;51.196;6.838;2023-09-19T13:19:49;21.50;99.90
37702;DHT22;23548;51.196;6.838;2023-09-19T13:22:40;21.60;99.90
37702;DHT22;23548;51.196;6.838;2023-09-19T13:25:18;21.70;99.90
37702;DHT22;23548;51.196;6.838;2023-09-19T13:27:46;22.10;99.90
37702;DHT22;23548;51.196;6.838;2023-09-19T13:30:14;21.80;99.90
37702;DHT22;23548;51.196;6.838;2023-09-19T13:32:40;21.80;99.90
37702;DHT22;23548;51.196;6.838;2023-09-19T13:35:07;22.20;99.90
37702;DHT22;23548;51.196;6.838;2023-09-19T13:37:38;22.30;99.90
37702;DHT22;23548;51.196;6.838;2023-09-19T13:40:08;22.40;99.90
37702;DHT22;23548;51.196;6.838;2023-09-19T13:42:34;22.10;99.90
37702;DHT22;23548;51.196;6.838;2023-09-19T13:45:03;22.20;99.90
37702;DHT22;23548;51.196;6.838;2023-09-19T13:47:30;22.10;99.90
37702;DHT22;23548;51.196;6.838;2023-09-19T13:49:56;21.80;99.90
37702;DHT22;23548;51.196;6.838;2023-09-19T13:52:22;21.80;99.90
37702;DHT22;23548;51.196;6.838;2023-09-19T13:54:52;21.90;99.90
37702;DHT22;23548;51.196;6.838;2023-09-19T13:57:18;21.70;99.90
37702;DHT22;23548;51.196;6.838;2023-09-19T13:59:44;21.50;99.90
37702;DHT22;23548;51.196;6.838;2023-09-19T14:02:10;21.30;99.90
37702;DHT22;23548;51.196;6.838;2023-09-19T14:04:35;21.40;99.90
37702;DHT22;23548;51.196;6.838;2023-09-19T14:07:01;21.30;99.90
37702;DHT22;23548;51.196;6.838;2023-09-19T14:09:27;21.10;99.90
37702;DHT22;23548;51.196;6.838;2023-09-19T14:11:53;21.00;99.90
37702;DHT22;23548;51.196;6.838;2023-09-19T14:14:19;20.90;99.90
37702;DHT22;23548;51.196;6.838;2023-09-19T14:16:47;20.90;99.90
37702;DHT22;23548;51.196;6.838;2023-09-19T14:19:13;21.10;99.90
37702;DHT22;23548;51.196;6.838;2023-09-19T14:21:40;21.50;99.90
37702;DHT22;23548;51.196;6.838;2023-09-19T14:24:06;21.20;99.90
37702;DHT22;23548;51.196;6.838;2023-09-19T14:26:38;21.30;99.90
37702;DHT22;23548;51.196;6.838;2023-09-19T14:29:04;21.30;99.90
37702;DHT22;23548;51.196;6.838;2023-09-19T14:31:33;21.70;99.90
37702;DHT22;23548;51.196;6.838;2023-09-19T14:33:59;21.90;99.90
37702;DHT22;23548;51.196;6.838;2023-09-19T14:36:25;22.00;99.90
37702;DHT22;23548;51.196;6.838;2023-09-19T14:38:55;22.20;99.90
37702;DHT22;23548;51.196;6.838;2023-09-19T14:41:23;22.50;99.90
37702;DHT22;23548;51.196;6.838;2023-09-19T14:43:51;22.90;99.90
37702;DHT22;23548;51.196;6.838;2023-09-19T14:46:17;22.30;99.90
37702;DHT22;23548;51.196;6.838;2023-09-19T14:48:44;21.70;99.90
37702;DHT22;23548;51.196;6.838;2023-09-19T14:51:13;21.50;99.90
37702;DHT22;23548;51.196;6.838;2023-09-19T14:53:40;21.30;99.90
37702;DHT22;23548;51.196;6.838;2023-09-19T14:56:09;21.10;99.90
37702;DHT22;23548;51.196;6.838;2023-09-19T14:58:36;20.90;99.90
37702;DHT22;23548;51.196;6.838;2023-09-19T15:01:09;20.80;99.90
37702;DHT22;23548;51.196;6.838;2023-09-19T15:03:38;20.50;99.90
37702;DHT22;23548;51.196;6.838;2023-09-19T15:06:09;20.70;99.90
37702;DHT22;23548;51.196;6.838;2023-09-19T15:08:38;20.80;99.90
37702;DHT22;23548;51.196;6.838;2023-09-19T15:11:07;20.80;99.90
37702;DHT22;23548;51.196;6.838;2023-09-19T15:13:34;20.90;99.90
37702;DHT22;23548;51.196;6.838;2023-09-19T15:16:04;20.80;99.90
37702;DHT22;23548;51.196;6.838;2023-09-19T15:18:30;20.90;99.90
37702;DHT22;23548;51.196;6.838;2023-09-19T15:21:00;20.90;99.90
37702;DHT22;23548;51.196;6.838;2023-09-19T15:23:26;20.80;99.90
37702;DHT22;23548;51.196;6.838;2023-09-19T15:25:52;20.90;99.90
37702;DHT22;23548;51.196;6.838;2023-09-19T15:28:19;20.80;99.90
37702;DHT22;23548;51.196;6.838;2023-09-19T15:30:48;20.60;99.90
37702;DHT22;23548;51.196;6.838;2023-09-19T15:33:14;20.50;99.90
37702;DHT22;23548;51.196;6.838;2023-09-19T15:35:40;20.50;99.90
37702;DHT22;23548;51.196;6.838;2023-09-19T15:38:06;20.40;99.90
37702;DHT22;23548;51.196;6.838;2023-09-19T15:40:33;20.50;99.90
37702;DHT22;23548;51.196;6.838;2023-09-19T15:42:58;20.40;99.90
37702;DHT22;23548;51.196;6.838;2023-09-19T15:45:25;20.40;99.90
37702;DHT22;23548;51.196;6.838;2023-09-19T15:47:51;20.50;99.90
37702;DHT22;23548;51.196;6.838;2023-09-19T15:50:17;20.60;99.90
37702;DHT22;23548;51.196;6.838;2023-09-19T15:52:43;20.70;99.90
37702;DHT22;23548;51.196;6.838;2023-09-19T15:55:09;20.80;99.90
37702;DHT22;23548;51.196;6.838;2023-09-19T15:57:38;21.00;99.90
37702;DHT22;23548;51.196;6.838;2023-09-19T16:00:06;20.90;99.90
37702;DHT22;23548;51.196;6.838;2023-09-19T16:02:38;20.70;99.90
37702;DHT22;23548;51.196;6.838;2023-09-19T16:05:04;20.60;99.90
37702;DHT22;23548;51.196;6.838;2023-09-19T16:07:33;20.40;99.90
37702;DHT22;23548;51.196;6.838;2023-09-19T16:10:02;20.30;99.90
37702;DHT22;23548;51.196;6.838;2023-09-19T16:12:28;20.30;99.90
37702;DHT22;23548;51.196;6.838;2023-09-19T16:14:56;20.30;99.90
37702;DHT22;23548;51.196;6.838;2023-09-19T16:17:21;20.30;99.90
37702;DHT22;23548;51.196;6.838;2023-09-19T16:19:47;20.50;99.90
37702;DHT22;23548;51.196;6.838;2023-09-19T16:22:13;20.60;99.90
37702;DHT22;23548;51.196;6.838;2023-09-19T16:24:39;20.70;99.90
37702;DHT22;23548;51.196;6.838;2023-09-19T16:27:05;20.80;99.90
37702;DHT22;23548;51.196;6.838;2023-09-19T16:29:31;20.80;99.90
37702;DHT22;23548;51.196;6.838;2023-09-19T16:31:57;20.70;99.90